THA8882 VHHH-VTBS
Flight info
| Callsign | THA8882 |
|---|---|
| Flight time | N/A |
| Altitude | 40000 |
| Route | PECAN V10 SIKOU/K0891S1220 A202 ASSAD/K0889F400 A202 VILAO/N0479F400 A202 RAMEI W42 PAKRI Y13 RUKSA EASTE1C |
| Aircraft | A359/H-SDE2E3GHIJ1J3J4J5LM1ORWXY/LB1D1 |
Departure
| Time | 2026-05-05 16:49 |
|---|---|
| Airport | Hong Kong International Airport (VHHH) |
Arrival
| Time | N/A |
|---|---|
| Airport | Suvarnabhumi Airport (VTBS) |
| Time | Latitude | Longitude | Altitude | Speed | Heading |
|---|---|---|---|---|---|
| 2026-05-05 16:30 | 22.30985 | 113.92679 | 38 ft | 0 kts | 296° |
| 2026-05-05 16:40 | 22.30984 | 113.92681 | 38 ft | 1 kts | 296° |
| 2026-05-05 16:40 | 22.30977 | 113.92697 | 38 ft | 3 kts | 289° |
| 2026-05-05 16:40 | 22.30971 | 113.92718 | 38 ft | 3 kts | 280° |
| 2026-05-05 16:40 | 22.30969 | 113.92739 | 37 ft | 3 kts | 273° |
| 2026-05-05 16:41 | 22.30968 | 113.92757 | 38 ft | 1 kts | 270° |
| 2026-05-05 16:41 | 22.30968 | 113.92758 | 38 ft | 0 kts | 270° |
| 2026-05-05 16:42 | 22.30967 | 113.92755 | 38 ft | 2 kts | 256° |
| 2026-05-05 16:43 | 22.30920 | 113.92739 | 38 ft | 12 kts | 184° |
| 2026-05-05 16:43 | 22.30843 | 113.92706 | 38 ft | 13 kts | 228° |
| 2026-05-05 16:43 | 22.30793 | 113.92569 | 38 ft | 23 kts | 251° |
| 2026-05-05 16:43 | 22.30738 | 113.92404 | 38 ft | 24 kts | 250° |
| 2026-05-05 16:44 | 22.30681 | 113.92229 | 36 ft | 26 kts | 250° |
| 2026-05-05 16:44 | 22.30619 | 113.92042 | 38 ft | 27 kts | 250° |
| 2026-05-05 16:44 | 22.30556 | 113.91845 | 38 ft | 29 kts | 252° |
| 2026-05-05 16:44 | 22.30489 | 113.91639 | 38 ft | 30 kts | 250° |
| 2026-05-05 16:45 | 22.30416 | 113.91422 | 38 ft | 31 kts | 250° |
| 2026-05-05 16:45 | 22.30348 | 113.91195 | 38 ft | 32 kts | 251° |
| 2026-05-05 16:45 | 22.30274 | 113.90962 | 38 ft | 33 kts | 250° |
| 2026-05-05 16:45 | 22.30192 | 113.90727 | 38 ft | 34 kts | 248° |
| 2026-05-05 16:46 | 22.30115 | 113.90482 | 38 ft | 35 kts | 252° |
| 2026-05-05 16:46 | 22.30036 | 113.90230 | 38 ft | 36 kts | 249° |
| 2026-05-05 16:46 | 22.29955 | 113.89971 | 38 ft | 36 kts | 265° |
| 2026-05-05 16:46 | 22.29877 | 113.89749 | 38 ft | 28 kts | 222° |
| 2026-05-05 16:47 | 22.29810 | 113.89744 | 38 ft | 9 kts | 165° |
| 2026-05-05 16:47 | 22.29747 | 113.89768 | 38 ft | 11 kts | 160° |
| 2026-05-05 16:47 | 22.29665 | 113.89807 | 36 ft | 15 kts | 143° |
| 2026-05-05 16:47 | 22.29654 | 113.89908 | 36 ft | 15 kts | 70° |
| 2026-05-05 16:48 | 22.29698 | 113.90046 | 36 ft | 37 kts | 71° |
| 2026-05-05 16:48 | 22.29862 | 113.90559 | 37 ft | 110 kts | 69° |
| 2026-05-05 16:48 | 22.30182 | 113.91551 | 64 ft | 167 kts | 72° |
| 2026-05-05 16:48 | 22.30599 | 113.92853 | 503 ft | 184 kts | 72° |
| 2026-05-05 16:49 | 22.31013 | 113.94150 | 1609 ft | 181 kts | 71° |
| 2026-05-05 16:49 | 22.31420 | 113.95412 | 2605 ft | 175 kts | 72° |
| 2026-05-05 16:49 | 22.31817 | 113.96629 | 3534 ft | 169 kts | 72° |
| 2026-05-05 16:49 | 22.32229 | 113.97937 | 3658 ft | 197 kts | 72° |
| 2026-05-05 16:50 | 22.32677 | 113.99424 | 3864 ft | 218 kts | 72° |
| 2026-05-05 16:50 | 22.33179 | 114.01012 | 4318 ft | 225 kts | 71° |
| 2026-05-05 16:50 | 22.33657 | 114.02627 | 4969 ft | 226 kts | 77° |
| 2026-05-05 16:50 | 22.33760 | 114.04327 | 5550 ft | 229 kts | 97° |
| 2026-05-05 16:51 | 22.33307 | 114.05953 | 6095 ft | 231 kts | 118° |
| 2026-05-05 16:51 | 22.32324 | 114.07318 | 6684 ft | 232 kts | 139° |
| 2026-05-05 16:51 | 22.30946 | 114.08296 | 7031 ft | 245 kts | 156° |
| 2026-05-05 16:51 | 22.29267 | 114.08771 | 7404 ft | 254 kts | 175° |
| 2026-05-05 16:52 | 22.27478 | 114.08817 | 7858 ft | 263 kts | 181° |
| 2026-05-05 16:52 | 22.25595 | 114.08768 | 8168 ft | 276 kts | 182° |
| 2026-05-05 16:52 | 22.23648 | 114.08716 | 8647 ft | 283 kts | 182° |
| 2026-05-05 16:52 | 22.21667 | 114.08677 | 9183 ft | 286 kts | 181° |
| 2026-05-05 16:53 | 22.19660 | 114.08652 | 9721 ft | 290 kts | 181° |
| 2026-05-05 16:53 | 22.17629 | 114.08608 | 10208 ft | 296 kts | 183° |
| 2026-05-05 16:53 | 22.15533 | 114.08386 | 10465 ft | 309 kts | 190° |
| 2026-05-05 16:53 | 22.13377 | 114.07921 | 10700 ft | 322 kts | 194° |
| 2026-05-05 16:54 | 22.11160 | 114.07337 | 10922 ft | 334 kts | 196° |
| 2026-05-05 16:54 | 22.08886 | 114.06680 | 11297 ft | 341 kts | 197° |